sensor_id;sensor_type;location;lat;lon;timestamp;temperature;humidity
15359;DHT22;7779;49.596;11.070;2022-08-21T00:00:33;18.40;77.60
15359;DHT22;7779;49.596;11.070;2022-08-21T00:03:02;18.40;77.50
15359;DHT22;7779;49.596;11.070;2022-08-21T00:05:31;18.40;77.70
15359;DHT22;7779;49.596;11.070;2022-08-21T00:07:59;18.40;77.50
15359;DHT22;7779;49.596;11.070;2022-08-21T00:10:25;18.40;77.40
15359;DHT22;7779;49.596;11.070;2022-08-21T00:12:51;18.30;77.30
15359;DHT22;7779;49.596;11.070;2022-08-21T00:15:22;18.30;77.30
15359;DHT22;7779;49.596;11.070;2022-08-21T00:17:52;18.30;77.60
15359;DHT22;7779;49.596;11.070;2022-08-21T00:20:20;18.20;77.30
15359;DHT22;7779;49.596;11.070;2022-08-21T00:22:46;18.20;77.40
15359;DHT22;7779;49.596;11.070;2022-08-21T00:25:13;18.20;77.40
15359;DHT22;7779;49.596;11.070;2022-08-21T00:27:41;18.10;77.30
15359;DHT22;7779;49.596;11.070;2022-08-21T00:30:10;18.10;77.30
15359;DHT22;7779;49.596;11.070;2022-08-21T00:32:38;18.10;77.40
15359;DHT22;7779;49.596;11.070;2022-08-21T00:35:07;18.00;77.40
15359;DHT22;7779;49.596;11.070;2022-08-21T00:37:38;18.00;77.70
15359;DHT22;7779;49.596;11.070;2022-08-21T00:40:08;18.00;77.80
15359;DHT22;7779;49.596;11.070;2022-08-21T00:42:37;17.90;78.00
15359;DHT22;7779;49.596;11.070;2022-08-21T00:45:05;17.90;78.50
15359;DHT22;7779;49.596;11.070;2022-08-21T00:47:32;17.90;78.70
15359;DHT22;7779;49.596;11.070;2022-08-21T00:49:58;17.90;78.10
15359;DHT22;7779;49.596;11.070;2022-08-21T00:52:27;17.90;78.10
15359;DHT22;7779;49.596;11.070;2022-08-21T00:54:57;17.90;78.40
15359;DHT22;7779;49.596;11.070;2022-08-21T00:57:30;17.80;79.00
15359;DHT22;7779;49.596;11.070;2022-08-21T01:00:02;17.80;78.60
15359;DHT22;7779;49.596;11.070;2022-08-21T01:02:33;17.80;78.10
15359;DHT22;7779;49.596;11.070;2022-08-21T01:04:59;17.80;78.00
15359;DHT22;7779;49.596;11.070;2022-08-21T01:07:25;17.80;78.20
15359;DHT22;7779;49.596;11.070;2022-08-21T01:09:51;17.70;78.20
15359;DHT22;7779;49.596;11.070;2022-08-21T01:12:18;17.70;78.20
15359;DHT22;7779;49.596;11.070;2022-08-21T01:14:44;17.70;78.40
15359;DHT22;7779;49.596;11.070;2022-08-21T01:17:13;17.70;78.50
15359;DHT22;7779;49.596;11.070;2022-08-21T01:19:41;17.70;78.80
15359;DHT22;7779;49.596;11.070;2022-08-21T01:22:07;17.70;78.80
15359;DHT22;7779;49.596;11.070;2022-08-21T01:24:33;17.70;78.80
15359;DHT22;7779;49.596;11.070;2022-08-21T01:27:00;17.70;78.90
15359;DHT22;7779;49.596;11.070;2022-08-21T01:29:41;17.70;78.90
15359;DHT22;7779;49.596;11.070;2022-08-21T01:32:16;17.70;79.40
15359;DHT22;7779;49.596;11.070;2022-08-21T01:34:45;17.70;79.50
15359;DHT22;7779;49.596;11.070;2022-08-21T01:37:14;17.60;80.40
15359;DHT22;7779;49.596;11.070;2022-08-21T01:39:42;17.70;79.00
15359;DHT22;7779;49.596;11.070;2022-08-21T01:42:08;17.70;79.20
15359;DHT22;7779;49.596;11.070;2022-08-21T01:44:35;17.70;79.30
15359;DHT22;7779;49.596;11.070;2022-08-21T01:47:05;17.70;79.30
15359;DHT22;7779;49.596;11.070;2022-08-21T01:49:33;17.70;79.70
15359;DHT22;7779;49.596;11.070;2022-08-21T01:52:00;17.70;79.20
15359;DHT22;7779;49.596;11.070;2022-08-21T01:54:26;17.60;79.10
15359;DHT22;7779;49.596;11.070;2022-08-21T01:56:53;17.60;79.20
15359;DHT22;7779;49.596;11.070;2022-08-21T01:59:22;17.60;79.20
15359;DHT22;7779;49.596;11.070;2022-08-21T02:01:49;17.60;79.40
15359;DHT22;7779;49.596;11.070;2022-08-21T02:04:15;17.60;79.30
15359;DHT22;7779;49.596;11.070;2022-08-21T02:06:41;17.60;79.40
15359;DHT22;7779;49.596;11.070;2022-08-21T02:09:09;17.60;79.50
15359;DHT22;7779;49.596;11.070;2022-08-21T02:11:36;17.60;79.60
15359;DHT22;7779;49.596;11.070;2022-08-21T02:14:10;17.60;79.70
15359;DHT22;7779;49.596;11.070;2022-08-21T02:16:38;17.70;79.80
15359;DHT22;7779;49.596;11.070;2022-08-21T02:19:05;17.70;79.90
15359;DHT22;7779;49.596;11.070;2022-08-21T02:21:31;17.70;79.90
15359;DHT22;7779;49.596;11.070;2022-08-21T02:23:57;17.70;79.90
15359;DHT22;7779;49.596;11.070;2022-08-21T02:26:23;17.70;80.00
15359;DHT22;7779;49.596;11.070;2022-08-21T02:28:49;17.70;80.10
15359;DHT22;7779;49.596;11.070;2022-08-21T02:31:15;17.70;80.30
15359;DHT22;7779;49.596;11.070;2022-08-21T02:33:41;17.70;80.30
15359;DHT22;7779;49.596;11.070;2022-08-21T02:36:09;17.70;80.20
15359;DHT22;7779;49.596;11.070;2022-08-21T02:38:37;17.70;80.20
15359;DHT22;7779;49.596;11.070;2022-08-21T02:41:11;17.70;80.30
15359;DHT22;7779;49.596;11.070;2022-08-21T02:43:42;17.70;81.10
15359;DHT22;7779;49.596;11.070;2022-08-21T02:46:10;17.70;80.40
15359;DHT22;7779;49.596;11.070;2022-08-21T02:48:38;17.80;80.50
15359;DHT22;7779;49.596;11.070;2022-08-21T02:51:10;17.80;80.40
15359;DHT22;7779;49.596;11.070;2022-08-21T02:53:39;17.80;80.50
15359;DHT22;7779;49.596;11.070;2022-08-21T02:56:08;17.80;80.30
15359;DHT22;7779;49.596;11.070;2022-08-21T02:58:39;17.80;80.50
15359;DHT22;7779;49.596;11.070;2022-08-21T03:01:11;17.80;80.70
15359;DHT22;7779;49.596;11.070;2022-08-21T03:03:39;17.80;80.50
15359;DHT22;7779;49.596;11.070;2022-08-21T03:06:08;17.80;80.50
15359;DHT22;7779;49.596;11.070;2022-08-21T03:08:36;17.80;80.40
15359;DHT22;7779;49.596;11.070;2022-08-21T03:11:03;17.80;80.20
15359;DHT22;7779;49.596;11.070;2022-08-21T03:13:29;17.80;80.10
15359;DHT22;7779;49.596;11.070;2022-08-21T03:15:56;17.80;80.10
15359;DHT22;7779;49.596;11.070;2022-08-21T03:18:22;17.80;80.10
15359;DHT22;7779;49.596;11.070;2022-08-21T03:20:47;17.70;79.90
15359;DHT22;7779;49.596;11.070;2022-08-21T03:23:16;17.70;79.80
15359;DHT22;7779;49.596;11.070;2022-08-21T03:25:43;17.70;79.80
15359;DHT22;7779;49.596;11.070;2022-08-21T03:28:13;17.70;79.70
15359;DHT22;7779;49.596;11.070;2022-08-21T03:30:43;17.70;79.80
15359;DHT22;7779;49.596;11.070;2022-08-21T03:33:11;17.70;79.60
15359;DHT22;7779;49.596;11.070;2022-08-21T03:35:37;17.60;79.50
15359;DHT22;7779;49.596;11.070;2022-08-21T03:38:03;17.60;79.60
15359;DHT22;7779;49.596;11.070;2022-08-21T03:40:29;17.60;79.70
15359;DHT22;7779;49.596;11.070;2022-08-21T03:42:55;17.60;79.90
15359;DHT22;7779;49.596;11.070;2022-08-21T03:45:21;17.50;80.00
15359;DHT22;7779;49.596;11.070;2022-08-21T03:48:07;17.50;80.10
15359;DHT22;7779;49.596;11.070;2022-08-21T03:50:39;17.50;81.80
15359;DHT22;7779;49.596;11.070;2022-08-21T03:53:08;17.50;80.70
15359;DHT22;7779;49.596;11.070;2022-08-21T03:55:35;17.50;80.60
15359;DHT22;7779;49.596;11.070;2022-08-21T03:58:01;17.50;80.70
15359;DHT22;7779;49.596;11.070;2022-08-21T04:00:28;17.50;80.60
15359;DHT22;7779;49.596;11.070;2022-08-21T04:02:54;17.50;80.60
15359;DHT22;7779;49.596;11.070;2022-08-21T04:05:20;17.50;80.60
15359;DHT22;7779;49.596;11.070;2022-08-21T04:07:54;17.50;80.60
15359;DHT22;7779;49.596;11.070;2022-08-21T04:10:25;17.50;80.70
15359;DHT22;7779;49.596;11.070;2022-08-21T04:12:53;17.50;80.80
15359;DHT22;7779;49.596;11.070;2022-08-21T04:15:20;17.50;80.80
15359;DHT22;7779;49.596;11.070;2022-08-21T04:17:47;17.50;80.90
15359;DHT22;7779;49.596;11.070;2022-08-21T04:20:14;17.50;81.00
15359;DHT22;7779;49.596;11.070;2022-08-21T04:22:42;17.50;81.00
15359;DHT22;7779;49.596;11.070;2022-08-21T04:25:08;17.50;81.00
15359;DHT22;7779;49.596;11.070;2022-08-21T04:27:34;17.50;81.00
15359;DHT22;7779;49.596;11.070;2022-08-21T04:30:00;17.50;80.90
15359;DHT22;7779;49.596;11.070;2022-08-21T04:32:26;17.50;80.90
15359;DHT22;7779;49.596;11.070;2022-08-21T04:35:03;17.50;80.90
15359;DHT22;7779;49.596;11.070;2022-08-21T04:37:32;17.50;81.60
15359;DHT22;7779;49.596;11.070;2022-08-21T04:39:57;17.50;81.00
15359;DHT22;7779;49.596;11.070;2022-08-21T04:42:27;17.50;81.10
15359;DHT22;7779;49.596;11.070;2022-08-21T04:44:54;17.50;81.70
15359;DHT22;7779;49.596;11.070;2022-08-21T04:47:22;17.50;81.30
15359;DHT22;7779;49.596;11.070;2022-08-21T04:49:49;17.60;81.40
15359;DHT22;7779;49.596;11.070;2022-08-21T04:52:20;17.60;81.60
15359;DHT22;7779;49.596;11.070;2022-08-21T04:54:49;17.50;82.00
15359;DHT22;7779;49.596;11.070;2022-08-21T04:57:17;17.50;81.70
15359;DHT22;7779;49.596;11.070;2022-08-21T04:59:49;17.60;81.80
15359;DHT22;7779;49.596;11.070;2022-08-21T05:02:17;17.60;82.70
15359;DHT22;7779;49.596;11.070;2022-08-21T05:04:51;17.60;82.10
15359;DHT22;7779;49.596;11.070;2022-08-21T05:07:23;17.60;82.30
15359;DHT22;7779;49.596;11.070;2022-08-21T05:09:53;17.60;82.20
15359;DHT22;7779;49.596;11.070;2022-08-21T05:12:20;17.70;82.20
15359;DHT22;7779;49.596;11.070;2022-08-21T05:14:47;17.70;82.20
15359;DHT22;7779;49.596;11.070;2022-08-21T05:17:13;17.70;82.20
15359;DHT22;7779;49.596;11.070;2022-08-21T05:19:39;17.70;82.20
15359;DHT22;7779;49.596;11.070;2022-08-21T05:22:05;17.70;82.40
15359;DHT22;7779;49.596;11.070;2022-08-21T05:24:32;17.70;82.50
15359;DHT22;7779;49.596;11.070;2022-08-21T05:26:58;17.70;82.30
15359;DHT22;7779;49.596;11.070;2022-08-21T05:29:25;17.80;82.40
15359;DHT22;7779;49.596;11.070;2022-08-21T05:31:51;17.80;82.40
15359;DHT22;7779;49.596;11.070;2022-08-21T05:34:21;17.80;82.60
15359;DHT22;7779;49.596;11.070;2022-08-21T05:36:49;17.80;82.60
15359;DHT22;7779;49.596;11.070;2022-08-21T05:39:16;17.90;82.70
15359;DHT22;7779;49.596;11.070;2022-08-21T05:41:42;17.90;82.60
15359;DHT22;7779;49.596;11.070;2022-08-21T05:44:08;17.90;82.60
15359;DHT22;7779;49.596;11.070;2022-08-21T05:46:34;17.90;82.50
15359;DHT22;7779;49.596;11.070;2022-08-21T05:48:59;17.90;82.40
15359;DHT22;7779;49.596;11.070;2022-08-21T05:51:26;18.00;82.50
15359;DHT22;7779;49.596;11.070;2022-08-21T05:53:52;18.00;82.50
15359;DHT22;7779;49.596;11.070;2022-08-21T05:56:17;18.00;82.40
15359;DHT22;7779;49.596;11.070;2022-08-21T05:58:43;18.10;82.60
15359;DHT22;7779;49.596;11.070;2022-08-21T06:01:09;18.10;82.60
15359;DHT22;7779;49.596;11.070;2022-08-21T06:03:38;18.10;82.40
15359;DHT22;7779;49.596;11.070;2022-08-21T06:06:05;18.20;82.40
15359;DHT22;7779;49.596;11.070;2022-08-21T06:08:31;18.20;82.30
15359;DHT22;7779;49.596;11.070;2022-08-21T06:10:59;18.20;82.10
15359;DHT22;7779;49.596;11.070;2022-08-21T06:13:26;18.30;82.20
15359;DHT22;7779;49.596;11.070;2022-08-21T06:16:13;18.30;82.20
15359;DHT22;7779;49.596;11.070;2022-08-21T06:18:41;18.30;83.30
15359;DHT22;7779;49.596;11.070;2022-08-21T06:21:08;18.30;82.60
15359;DHT22;7779;49.596;11.070;2022-08-21T06:23:35;18.40;82.90
15359;DHT22;7779;49.596;11.070;2022-08-21T06:26:02;18.50;83.10
15359;DHT22;7779;49.596;11.070;2022-08-21T06:28:31;18.50;83.00
15359;DHT22;7779;49.596;11.070;2022-08-21T06:30:57;18.60;82.90
15359;DHT22;7779;49.596;11.070;2022-08-21T06:33:23;18.60;82.80
15359;DHT22;7779;49.596;11.070;2022-08-21T06:35:49;18.70;82.70
15359;DHT22;7779;49.596;11.070;2022-08-21T06:38:15;18.70;82.50
15359;DHT22;7779;49.596;11.070;2022-08-21T06:40:41;18.80;82.60
15359;DHT22;7779;49.596;11.070;2022-08-21T06:43:09;18.80;82.70
15359;DHT22;7779;49.596;11.070;2022-08-21T06:45:40;18.90;82.70
15359;DHT22;7779;49.596;11.070;2022-08-21T06:48:06;19.00;82.60
15359;DHT22;7779;49.596;11.070;2022-08-21T06:50:32;19.00;82.40
15359;DHT22;7779;49.596;11.070;2022-08-21T06:53:07;19.10;82.30
15359;DHT22;7779;49.596;11.070;2022-08-21T06:55:35;19.10;82.30
15359;DHT22;7779;49.596;11.070;2022-08-21T06:58:03;19.20;82.30
15359;DHT22;7779;49.596;11.070;2022-08-21T07:00:29;19.20;82.40
15359;DHT22;7779;49.596;11.070;2022-08-21T07:02:57;19.30;82.70
15359;DHT22;7779;49.596;11.070;2022-08-21T07:05:26;19.30;82.10
15359;DHT22;7779;49.596;11.070;2022-08-21T07:07:54;19.30;81.90
15359;DHT22;7779;49.596;11.070;2022-08-21T07:10:20;19.40;81.60
15359;DHT22;7779;49.596;11.070;2022-08-21T07:12:46;19.40;81.20
15359;DHT22;7779;49.596;11.070;2022-08-21T07:15:11;19.40;80.90
15359;DHT22;7779;49.596;11.070;2022-08-21T07:17:38;19.40;80.70
15359;DHT22;7779;49.596;11.070;2022-08-21T07:20:05;19.40;80.70
15359;DHT22;7779;49.596;11.070;2022-08-21T07:22:32;19.50;81.60
15359;DHT22;7779;49.596;11.070;2022-08-21T07:24:59;19.50;81.30
15359;DHT22;7779;49.596;11.070;2022-08-21T07:27:24;19.50;81.70
15359;DHT22;7779;49.596;11.070;2022-08-21T07:29:51;19.60;82.00
15359;DHT22;7779;49.596;11.070;2022-08-21T07:32:16;19.60;82.20
15359;DHT22;7779;49.596;11.070;2022-08-21T07:34:42;19.70;82.60
15359;DHT22;7779;49.596;11.070;2022-08-21T07:37:08;19.80;82.90
15359;DHT22;7779;49.596;11.070;2022-08-21T07:39:34;19.90;83.00
15359;DHT22;7779;49.596;11.070;2022-08-21T07:42:00;20.00;83.00
15359;DHT22;7779;49.596;11.070;2022-08-21T07:44:26;20.10;82.70
15359;DHT22;7779;49.596;11.070;2022-08-21T07:46:52;20.20;82.40
15359;DHT22;7779;49.596;11.070;2022-08-21T07:49:18;20.30;82.10
15359;DHT22;7779;49.596;11.070;2022-08-21T07:51:43;20.40;81.80
15359;DHT22;7779;49.596;11.070;2022-08-21T07:54:09;20.40;81.40
15359;DHT22;7779;49.596;11.070;2022-08-21T07:56:35;20.50;81.30
15359;DHT22;7779;49.596;11.070;2022-08-21T07:59:01;20.60;81.20
15359;DHT22;7779;49.596;11.070;2022-08-21T08:01:28;20.60;81.10
15359;DHT22;7779;49.596;11.070;2022-08-21T08:03:56;20.70;80.90
15359;DHT22;7779;49.596;11.070;2022-08-21T08:06:22;20.70;80.70
15359;DHT22;7779;49.596;11.070;2022-08-21T08:08:48;20.80;80.50
15359;DHT22;7779;49.596;11.070;2022-08-21T08:11:15;20.80;80.20
15359;DHT22;7779;49.596;11.070;2022-08-21T08:13:47;20.80;80.00
15359;DHT22;7779;49.596;11.070;2022-08-21T08:16:15;20.90;79.80
15359;DHT22;7779;49.596;11.070;2022-08-21T08:18:41;20.90;79.90
15359;DHT22;7779;49.596;11.070;2022-08-21T08:21:08;21.00;79.90
15359;DHT22;7779;49.596;11.070;2022-08-21T08:23:36;21.00;79.80
15359;DHT22;7779;49.596;11.070;2022-08-21T08:26:02;21.00;79.70
15359;DHT22;7779;49.596;11.070;2022-08-21T08:28:29;21.10;79.60
15359;DHT22;7779;49.596;11.070;2022-08-21T08:30:57;21.10;79.40
15359;DHT22;7779;49.596;11.070;2022-08-21T08:33:24;21.20;79.30
15359;DHT22;7779;49.596;11.070;2022-08-21T08:35:51;21.20;79.10
15359;DHT22;7779;49.596;11.070;2022-08-21T08:38:19;21.30;79.10
15359;DHT22;7779;49.596;11.070;2022-08-21T08:40:55;21.30;78.80
15359;DHT22;7779;49.596;11.070;2022-08-21T08:43:29;21.30;78.10
15359;DHT22;7779;49.596;11.070;2022-08-21T08:46:01;21.30;78.00
15359;DHT22;7779;49.596;11.070;2022-08-21T08:48:39;21.40;77.80
15359;DHT22;7779;49.596;11.070;2022-08-21T08:54:31;21.40;77.10
15359;DHT22;7779;49.596;11.070;2022-08-21T08:57:00;21.40;77.50
15359;DHT22;7779;49.596;11.070;2022-08-21T08:59:38;21.40;77.90
15359;DHT22;7779;49.596;11.070;2022-08-21T09:02:09;21.50;77.80
15359;DHT22;7779;49.596;11.070;2022-08-21T09:04:37;21.50;78.10
15359;DHT22;7779;49.596;11.070;2022-08-21T09:10:19;21.60;77.70
15359;DHT22;7779;49.596;11.070;2022-08-21T09:15:49;21.60;77.80
15359;DHT22;7779;49.596;11.070;2022-08-21T09:27:13;21.90;77.00
15359;DHT22;7779;49.596;11.070;2022-08-21T09:29:46;22.00;76.50
15359;DHT22;7779;49.596;11.070;2022-08-21T09:32:19;22.00;77.10
15359;DHT22;7779;49.596;11.070;2022-08-21T09:37:57;22.10;76.50
15359;DHT22;7779;49.596;11.070;2022-08-21T09:40:30;22.20;76.10
15359;DHT22;7779;49.596;11.070;2022-08-21T09:43:03;22.30;76.50
15359;DHT22;7779;49.596;11.070;2022-08-21T09:45:33;22.40;76.10
15359;DHT22;7779;49.596;11.070;2022-08-21T09:48:19;22.40;76.40
15359;DHT22;7779;49.596;11.070;2022-08-21T09:50:48;22.50;74.90
15359;DHT22;7779;49.596;11.070;2022-08-21T09:53:19;22.50;76.00
15359;DHT22;7779;49.596;11.070;2022-08-21T09:55:51;22.60;75.80
15359;DHT22;7779;49.596;11.070;2022-08-21T09:58:48;22.70;76.30
15359;DHT22;7779;49.596;11.070;2022-08-21T10:01:25;22.80;75.90
15359;DHT22;7779;49.596;11.070;2022-08-21T10:04:07;22.90;74.80
15359;DHT22;7779;49.596;11.070;2022-08-21T10:06:34;23.00;74.10
15359;DHT22;7779;49.596;11.070;2022-08-21T10:09:11;23.10;75.60
15359;DHT22;7779;49.596;11.070;2022-08-21T10:11:49;23.20;74.10
15359;DHT22;7779;49.596;11.070;2022-08-21T10:14:35;23.30;74.90
15359;DHT22;7779;49.596;11.070;2022-08-21T10:20:11;23.60;74.30
15359;DHT22;7779;49.596;11.070;2022-08-21T10:23:15;23.70;74.70
15359;DHT22;7779;49.596;11.070;2022-08-21T10:26:23;23.80;72.50
15359;DHT22;7779;49.596;11.070;2022-08-21T10:29:05;23.90;72.40
15359;DHT22;7779;49.596;11.070;2022-08-21T10:32:22;24.00;72.70
15359;DHT22;7779;49.596;11.070;2022-08-21T10:35:10;24.10;71.50
15359;DHT22;7779;49.596;11.070;2022-08-21T10:37:46;24.10;70.90
15359;DHT22;7779;49.596;11.070;2022-08-21T10:40:58;24.10;69.70
15359;DHT22;7779;49.596;11.070;2022-08-21T10:55:27;24.00;70.40
15359;DHT22;7779;49.596;11.070;2022-08-21T11:00:53;24.00;70.20
15359;DHT22;7779;49.596;11.070;2022-08-21T11:03:50;24.00;69.40
15359;DHT22;7779;49.596;11.070;2022-08-21T11:06:28;24.00;70.10
15359;DHT22;7779;49.596;11.070;2022-08-21T11:09:03;24.00;70.30
15359;DHT22;7779;49.596;11.070;2022-08-21T11:12:19;24.00;70.10
15359;DHT22;7779;49.596;11.070;2022-08-21T11:29:56;24.00;68.60
15359;DHT22;7779;49.596;11.070;2022-08-21T11:38:41;24.10;67.60
15359;DHT22;7779;49.596;11.070;2022-08-21T11:44:13;24.30;68.40
15359;DHT22;7779;49.596;11.070;2022-08-21T11:47:04;24.30;65.40
15359;DHT22;7779;49.596;11.070;2022-08-21T11:50:12;24.30;66.10
15359;DHT22;7779;49.596;11.070;2022-08-21T11:52:48;24.40;66.40
15359;DHT22;7779;49.596;11.070;2022-08-21T11:55:23;24.50;67.10
15359;DHT22;7779;49.596;11.070;2022-08-21T11:58:11;24.50;67.20
15359;DHT22;7779;49.596;11.070;2022-08-21T12:00:52;24.60;64.90
15359;DHT22;7779;49.596;11.070;2022-08-21T12:04:23;24.60;65.20
15359;DHT22;7779;49.596;11.070;2022-08-21T12:06:42;24.70;63.80
15359;DHT22;7779;49.596;11.070;2022-08-21T12:09:30;24.80;65.60
15359;DHT22;7779;49.596;11.070;2022-08-21T12:12:24;24.80;62.30
15359;DHT22;7779;49.596;11.070;2022-08-21T12:18:20;25.00;61.60
15359;DHT22;7779;49.596;11.070;2022-08-21T12:21:17;25.00;61.80
15359;DHT22;7779;49.596;11.070;2022-08-21T12:24:17;25.10;61.30
15359;DHT22;7779;49.596;11.070;2022-08-21T12:29:29;25.30;62.90
15359;DHT22;7779;49.596;11.070;2022-08-21T12:35:16;25.40;60.90
15359;DHT22;7779;49.596;11.070;2022-08-21T12:37:43;25.40;59.30
15359;DHT22;7779;49.596;11.070;2022-08-21T12:40:23;25.50;61.40
15359;DHT22;7779;49.596;11.070;2022-08-21T12:42:55;25.50;60.90
15359;DHT22;7779;49.596;11.070;2022-08-21T12:45:37;25.50;60.10
15359;DHT22;7779;49.596;11.070;2022-08-21T12:48:26;25.60;58.20
15359;DHT22;7779;49.596;11.070;2022-08-21T12:51:24;25.60;57.50
15359;DHT22;7779;49.596;11.070;2022-08-21T12:53:56;25.60;57.40
15359;DHT22;7779;49.596;11.070;2022-08-21T12:56:27;25.60;58.90
15359;DHT22;7779;49.596;11.070;2022-08-21T12:59:11;25.70;58.90
15359;DHT22;7779;49.596;11.070;2022-08-21T13:01:49;25.70;57.90
15359;DHT22;7779;49.596;11.070;2022-08-21T13:04:36;25.70;57.60
15359;DHT22;7779;49.596;11.070;2022-08-21T13:07:11;25.80;57.80
15359;DHT22;7779;49.596;11.070;2022-08-21T13:10:04;25.80;57.50
15359;DHT22;7779;49.596;11.070;2022-08-21T13:12:41;25.90;56.30
15359;DHT22;7779;49.596;11.070;2022-08-21T13:15:08;25.90;57.90
15359;DHT22;7779;49.596;11.070;2022-08-21T13:17:36;25.90;57.90
15359;DHT22;7779;49.596;11.070;2022-08-21T13:20:08;26.00;57.70
15359;DHT22;7779;49.596;11.070;2022-08-21T13:22:44;26.00;57.60
15359;DHT22;7779;49.596;11.070;2022-08-21T13:25:16;26.00;57.60
15359;DHT22;7779;49.596;11.070;2022-08-21T13:27:56;26.10;56.90
15359;DHT22;7779;49.596;11.070;2022-08-21T13:30:25;26.10;57.00
15359;DHT22;7779;49.596;11.070;2022-08-21T13:32:55;26.10;57.00
15359;DHT22;7779;49.596;11.070;2022-08-21T13:35:52;26.10;56.80
15359;DHT22;7779;49.596;11.070;2022-08-21T13:38:20;26.10;56.30
15359;DHT22;7779;49.596;11.070;2022-08-21T13:40:53;26.20;56.70
15359;DHT22;7779;49.596;11.070;2022-08-21T13:43:28;26.20;56.80
15359;DHT22;7779;49.596;11.070;2022-08-21T13:45:58;26.20;56.30
15359;DHT22;7779;49.596;11.070;2022-08-21T13:48:29;26.30;56.80
15359;DHT22;7779;49.596;11.070;2022-08-21T13:50:58;26.30;56.60
15359;DHT22;7779;49.596;11.070;2022-08-21T13:53:36;26.30;56.70
15359;DHT22;7779;49.596;11.070;2022-08-21T13:56:26;26.30;56.40
15359;DHT22;7779;49.596;11.070;2022-08-21T13:58:56;26.40;55.00
15359;DHT22;7779;49.596;11.070;2022-08-21T14:04:19;26.50;55.30
15359;DHT22;7779;49.596;11.070;2022-08-21T14:06:48;26.50;54.30
15359;DHT22;7779;49.596;11.070;2022-08-21T14:09:32;26.50;55.40
15359;DHT22;7779;49.596;11.070;2022-08-21T14:12:04;26.60;53.90
15359;DHT22;7779;49.596;11.070;2022-08-21T14:14:40;26.60;54.90
15359;DHT22;7779;49.596;11.070;2022-08-21T14:17:10;26.60;54.90
15359;DHT22;7779;49.596;11.070;2022-08-21T14:19:45;26.60;54.30
15359;DHT22;7779;49.596;11.070;2022-08-21T14:22:44;26.70;53.90
15359;DHT22;7779;49.596;11.070;2022-08-21T14:30:33;26.70;53.50
15359;DHT22;7779;49.596;11.070;2022-08-21T14:33:02;26.70;53.20
15359;DHT22;7779;49.596;11.070;2022-08-21T14:35:30;26.70;53.50
15359;DHT22;7779;49.596;11.070;2022-08-21T14:37:56;26.80;53.50
15359;DHT22;7779;49.596;11.070;2022-08-21T14:40:24;26.80;53.20
15359;DHT22;7779;49.596;11.070;2022-08-21T14:42:50;26.80;52.90
15359;DHT22;7779;49.596;11.070;2022-08-21T14:45:29;26.90;52.80
15359;DHT22;7779;49.596;11.070;2022-08-21T14:47:58;26.90;52.20
15359;DHT22;7779;49.596;11.070;2022-08-21T14:50:25;26.90;52.10
15359;DHT22;7779;49.596;11.070;2022-08-21T14:52:51;26.90;51.80
15359;DHT22;7779;49.596;11.070;2022-08-21T14:55:18;26.90;51.60
15359;DHT22;7779;49.596;11.070;2022-08-21T14:57:49;27.00;51.50
15359;DHT22;7779;49.596;11.070;2022-08-21T15:00:19;27.00;50.60
15359;DHT22;7779;49.596;11.070;2022-08-21T15:02:50;27.00;51.00
15359;DHT22;7779;49.596;11.070;2022-08-21T15:05:17;27.00;50.90
15359;DHT22;7779;49.596;11.070;2022-08-21T15:07:44;27.00;50.60
15359;DHT22;7779;49.596;11.070;2022-08-21T15:10:13;27.00;50.40
15359;DHT22;7779;49.596;11.070;2022-08-21T15:12:39;27.00;50.30
15359;DHT22;7779;49.596;11.070;2022-08-21T15:15:06;27.10;50.20
15359;DHT22;7779;49.596;11.070;2022-08-21T15:17:33;27.10;50.00
15359;DHT22;7779;49.596;11.070;2022-08-21T15:19:59;27.10;49.90
15359;DHT22;7779;49.596;11.070;2022-08-21T15:22:25;27.10;49.80
15359;DHT22;7779;49.596;11.070;2022-08-21T15:24:51;27.10;49.80
15359;DHT22;7779;49.596;11.070;2022-08-21T15:27:18;27.10;49.60
15359;DHT22;7779;49.596;11.070;2022-08-21T15:29:44;27.10;49.40
15359;DHT22;7779;49.596;11.070;2022-08-21T15:32:19;27.10;47.60
15359;DHT22;7779;49.596;11.070;2022-08-21T15:34:51;27.10;48.60
15359;DHT22;7779;49.596;11.070;2022-08-21T15:37:18;27.10;49.20
15359;DHT22;7779;49.596;11.070;2022-08-21T15:39:45;27.10;49.10
15359;DHT22;7779;49.596;11.070;2022-08-21T15:42:12;27.20;49.10
15359;DHT22;7779;49.596;11.070;2022-08-21T15:44:40;27.20;48.90
15359;DHT22;7779;49.596;11.070;2022-08-21T15:47:19;27.20;48.70
15359;DHT22;7779;49.596;11.070;2022-08-21T15:49:49;27.20;47.40
15359;DHT22;7779;49.596;11.070;2022-08-21T15:52:18;27.10;48.50
15359;DHT22;7779;49.596;11.070;2022-08-21T15:54:46;27.10;48.30
15359;DHT22;7779;49.596;11.070;2022-08-21T15:57:14;27.10;48.40
15359;DHT22;7779;49.596;11.070;2022-08-21T15:59:47;27.10;48.20
15359;DHT22;7779;49.596;11.070;2022-08-21T16:04:56;27.10;48.00
15359;DHT22;7779;49.596;11.070;2022-08-21T16:07:22;27.10;48.40
15359;DHT22;7779;49.596;11.070;2022-08-21T16:09:48;27.10;49.00
15359;DHT22;7779;49.596;11.070;2022-08-21T16:12:29;27.10;48.30
15359;DHT22;7779;49.596;11.070;2022-08-21T16:14:59;27.10;47.20
15359;DHT22;7779;49.596;11.070;2022-08-21T16:17:32;27.10;48.20
15359;DHT22;7779;49.596;11.070;2022-08-21T16:20:00;27.10;47.90
15359;DHT22;7779;49.596;11.070;2022-08-21T16:22:29;27.00;48.00
15359;DHT22;7779;49.596;11.070;2022-08-21T16:24:55;27.10;48.00
15359;DHT22;7779;49.596;11.070;2022-08-21T16:27:21;27.10;47.90
15359;DHT22;7779;49.596;11.070;2022-08-21T16:29:47;27.00;47.80
15359;DHT22;7779;49.596;11.070;2022-08-21T16:32:14;27.00;47.70
15359;DHT22;7779;49.596;11.070;2022-08-21T16:34:45;27.00;47.60
15359;DHT22;7779;49.596;11.070;2022-08-21T16:37:16;27.00;47.40
15359;DHT22;7779;49.596;11.070;2022-08-21T16:39:42;27.00;47.40
15359;DHT22;7779;49.596;11.070;2022-08-21T16:42:13;27.00;47.60
15359;DHT22;7779;49.596;11.070;2022-08-21T16:44:44;26.90;47.20
15359;DHT22;7779;49.596;11.070;2022-08-21T16:47:10;26.90;47.60
15359;DHT22;7779;49.596;11.070;2022-08-21T16:49:35;26.90;47.60
15359;DHT22;7779;49.596;11.070;2022-08-21T16:52:03;26.90;47.60
15359;DHT22;7779;49.596;11.070;2022-08-21T16:54:30;26.90;47.60
15359;DHT22;7779;49.596;11.070;2022-08-21T16:56:57;26.80;47.40
15359;DHT22;7779;49.596;11.070;2022-08-21T16:59:25;26.80;47.30
15359;DHT22;7779;49.596;11.070;2022-08-21T17:01:52;26.80;47.40
15359;DHT22;7779;49.596;11.070;2022-08-21T17:04:19;26.80;47.30
15359;DHT22;7779;49.596;11.070;2022-08-21T17:06:46;26.80;47.30
15359;DHT22;7779;49.596;11.070;2022-08-21T17:09:12;26.70;47.20
15359;DHT22;7779;49.596;11.070;2022-08-21T17:11:41;26.70;47.20
15359;DHT22;7779;49.596;11.070;2022-08-21T17:14:21;26.70;47.00
15359;DHT22;7779;49.596;11.070;2022-08-21T17:16:53;26.60;46.30